sensor_id;sensor_type;location;lat;lon;timestamp;P1;P2;P0
75946;PMS5003;64628;50.104;14.614;2023-06-19T00:05:27;33;32;
75946;PMS5003;64628;50.104;14.614;2023-06-19T00:07:53;38;36;
75946;PMS5003;64628;50.104;14.614;2023-06-19T00:10:24;37;37;
75946;PMS5003;64628;50.104;14.614;2023-06-19T00:12:43;33;33;
75946;PMS5003;64628;50.104;14.614;2023-06-19T00:15:11;53;53;
75946;PMS5003;64628;50.104;14.614;2023-06-19T00:17:35;38;36;
75946;PMS5003;64628;50.104;14.614;2023-06-19T00:19:59;40;34;
75946;PMS5003;64628;50.104;14.614;2023-06-19T00:22:25;38;38;
75946;PMS5003;64628;50.104;14.614;2023-06-19T00:24:50;42;39;
75946;PMS5003;64628;50.104;14.614;2023-06-19T00:27:20;43;38;
75946;PMS5003;64628;50.104;14.614;2023-06-19T00:29:40;44;43;
75946;PMS5003;64628;50.104;14.614;2023-06-19T00:34:32;42;41;
75946;PMS5003;64628;50.104;14.614;2023-06-19T00:37:09;38;35;
75946;PMS5003;64628;50.104;14.614;2023-06-19T00:39:23;41;38;
75946;PMS5003;64628;50.104;14.614;2023-06-19T00:44:20;59;57;
75946;PMS5003;64628;50.104;14.614;2023-06-19T00:46:40;45;44;
75946;PMS5003;64628;50.104;14.614;2023-06-19T00:49:06;40;40;
75946;PMS5003;64628;50.104;14.614;2023-06-19T00:51:31;47;46;
75946;PMS5003;64628;50.104;14.614;2023-06-19T00:53:58;68;65;
75946;PMS5003;64628;50.104;14.614;2023-06-19T00:56:26;41;41;
75946;PMS5003;64628;50.104;14.614;2023-06-19T01:03:38;97;93;
75946;PMS5003;64628;50.104;14.614;2023-06-19T01:08:41;147;145;
75946;PMS5003;64628;50.104;14.614;2023-06-19T01:10:59;102;99;
75946;PMS5003;64628;50.104;14.614;2023-06-19T01:13:21;68;65;
75946;PMS5003;64628;50.104;14.614;2023-06-19T01:15:47;34;31;
75946;PMS5003;64628;50.104;14.614;2023-06-19T01:20:36;24;24;
75946;PMS5003;64628;50.104;14.614;2023-06-19T01:23:05;36;36;
75946;PMS5003;64628;50.104;14.614;2023-06-19T01:27:58;40;39;
75946;PMS5003;64628;50.104;14.614;2023-06-19T01:30:18;34;34;
75946;PMS5003;64628;50.104;14.614;2023-06-19T01:35:08;34;33;
75946;PMS5003;64628;50.104;14.614;2023-06-19T01:37:34;33;32;
75946;PMS5003;64628;50.104;14.614;2023-06-19T01:39:59;32;30;
75946;PMS5003;64628;50.104;14.614;2023-06-19T01:44:49;39;37;
75946;PMS5003;64628;50.104;14.614;2023-06-19T01:47:17;34;33;
75946;PMS5003;64628;50.104;14.614;2023-06-19T01:52:10;45;41;
75946;PMS5003;64628;50.104;14.614;2023-06-19T01:54:32;33;31;
75946;PMS5003;64628;50.104;14.614;2023-06-19T01:59:27;36;35;
75946;PMS5003;64628;50.104;14.614;2023-06-19T02:01:49;41;36;
75946;PMS5003;64628;50.104;14.614;2023-06-19T02:04:14;34;31;
75946;PMS5003;64628;50.104;14.614;2023-06-19T02:06:39;30;27;
75946;PMS5003;64628;50.104;14.614;2023-06-19T02:09:08;38;37;
75946;PMS5003;64628;50.104;14.614;2023-06-19T02:11:29;39;37;
75946;PMS5003;64628;50.104;14.614;2023-06-19T02:13:59;44;39;
75946;PMS5003;64628;50.104;14.614;2023-06-19T02:16:22;39;34;
75946;PMS5003;64628;50.104;14.614;2023-06-19T02:18:47;42;38;
75946;PMS5003;64628;50.104;14.614;2023-06-19T02:21:19;34;30;
75946;PMS5003;64628;50.104;14.614;2023-06-19T02:23:40;38;38;
75946;PMS5003;64628;50.104;14.614;2023-06-19T02:26:06;38;36;
75946;PMS5003;64628;50.104;14.614;2023-06-19T02:28:29;37;32;
75946;PMS5003;64628;50.104;14.614;2023-06-19T02:33:19;37;35;
75946;PMS5003;64628;50.104;14.614;2023-06-19T02:38:11;38;37;
75946;PMS5003;64628;50.104;14.614;2023-06-19T02:40:36;37;32;
75946;PMS5003;64628;50.104;14.614;2023-06-19T02:43:01;36;33;
75946;PMS5003;64628;50.104;14.614;2023-06-19T02:45:31;43;39;
75946;PMS5003;64628;50.104;14.614;2023-06-19T02:50:23;39;36;
75946;PMS5003;64628;50.104;14.614;2023-06-19T02:52:43;45;44;
75946;PMS5003;64628;50.104;14.614;2023-06-19T02:55:09;40;36;
75946;PMS5003;64628;50.104;14.614;2023-06-19T02:57:40;43;40;
75946;PMS5003;64628;50.104;14.614;2023-06-19T02:59:59;40;38;
75946;PMS5003;64628;50.104;14.614;2023-06-19T03:04:55;50;46;
75946;PMS5003;64628;50.104;14.614;2023-06-19T03:07:15;34;33;
75946;PMS5003;64628;50.104;14.614;2023-06-19T03:09:40;38;38;
75946;PMS5003;64628;50.104;14.614;2023-06-19T03:12:09;40;38;
75946;PMS5003;64628;50.104;14.614;2023-06-19T03:14:30;40;40;
75946;PMS5003;64628;50.104;14.614;2023-06-19T03:16:57;46;40;
75946;PMS5003;64628;50.104;14.614;2023-06-19T03:19:28;44;40;
75946;PMS5003;64628;50.104;14.614;2023-06-19T03:21:47;47;41;
75946;PMS5003;64628;50.104;14.614;2023-06-19T03:24:22;47;44;
75946;PMS5003;64628;50.104;14.614;2023-06-19T03:31:31;46;40;
75946;PMS5003;64628;50.104;14.614;2023-06-19T03:33:54;45;42;
75946;PMS5003;64628;50.104;14.614;2023-06-19T03:36:22;144;138;
75946;PMS5003;64628;50.104;14.614;2023-06-19T03:38:51;71;67;
75946;PMS5003;64628;50.104;14.614;2023-06-19T03:41:14;70;67;
75946;PMS5003;64628;50.104;14.614;2023-06-19T03:43:37;59;58;
75946;PMS5003;64628;50.104;14.614;2023-06-19T03:46:02;56;54;
75946;PMS5003;64628;50.104;14.614;2023-06-19T03:48:27;74;73;
75946;PMS5003;64628;50.104;14.614;2023-06-19T03:50:58;50;48;
75946;PMS5003;64628;50.104;14.614;2023-06-19T03:58:08;53;50;
75946;PMS5003;64628;50.104;14.614;2023-06-19T04:03:05;57;54;
75946;PMS5003;64628;50.104;14.614;2023-06-19T04:07:58;53;52;
75946;PMS5003;64628;50.104;14.614;2023-06-19T04:10:16;62;59;
75946;PMS5003;64628;50.104;14.614;2023-06-19T04:12:40;133;129;
75946;PMS5003;64628;50.104;14.614;2023-06-19T04:24:49;51;47;
75946;PMS5003;64628;50.104;14.614;2023-06-19T04:32:12;54;52;
75946;PMS5003;64628;50.104;14.614;2023-06-19T04:34:38;55;52;
75946;PMS5003;64628;50.104;14.614;2023-06-19T04:46:37;69;66;
75946;PMS5003;64628;50.104;14.614;2023-06-19T04:51:28;46;42;
75946;PMS5003;64628;50.104;14.614;2023-06-19T04:58:47;49;42;
75946;PMS5003;64628;50.104;14.614;2023-06-19T05:06:06;34;33;
75946;PMS5003;64628;50.104;14.614;2023-06-19T05:15:50;37;35;
75946;PMS5003;64628;50.104;14.614;2023-06-19T05:27:55;29;27;
75946;PMS5003;64628;50.104;14.614;2023-06-19T05:30:15;34;34;
75946;PMS5003;64628;50.104;14.614;2023-06-19T05:37:33;32;27;
75946;PMS5003;64628;50.104;14.614;2023-06-19T05:40:03;30;27;
75946;PMS5003;64628;50.104;14.614;2023-06-19T05:42:22;28;26;
75946;PMS5003;64628;50.104;14.614;2023-06-19T05:47:19;30;28;
75946;PMS5003;64628;50.104;14.614;2023-06-19T05:59:26;31;29;
75946;PMS5003;64628;50.104;14.614;2023-06-19T06:01:45;33;32;
75946;PMS5003;64628;50.104;14.614;2023-06-19T06:04:11;32;30;
75946;PMS5003;64628;50.104;14.614;2023-06-19T06:06:42;36;35;
75946;PMS5003;64628;50.104;14.614;2023-06-19T06:09:04;31;30;
75946;PMS5003;64628;50.104;14.614;2023-06-19T06:13:56;31;31;
75946;PMS5003;64628;50.104;14.614;2023-06-19T06:16:18;36;36;
75946;PMS5003;64628;50.104;14.614;2023-06-19T06:18:50;29;26;
75946;PMS5003;64628;50.104;14.614;2023-06-19T06:21:08;34;32;
75946;PMS5003;64628;50.104;14.614;2023-06-19T06:23:35;35;33;
75946;PMS5003;64628;50.104;14.614;2023-06-19T06:26:07;39;38;
75946;PMS5003;64628;50.104;14.614;2023-06-19T06:28:24;34;32;
75946;PMS5003;64628;50.104;14.614;2023-06-19T06:30:58;41;34;
75946;PMS5003;64628;50.104;14.614;2023-06-19T06:33:18;32;30;
75946;PMS5003;64628;50.104;14.614;2023-06-19T06:35:48;30;29;
75946;PMS5003;64628;50.104;14.614;2023-06-19T06:38:07;35;32;
75946;PMS5003;64628;50.104;14.614;2023-06-19T06:40:41;30;30;
75946;PMS5003;64628;50.104;14.614;2023-06-19T06:43:08;35;29;
75946;PMS5003;64628;50.104;14.614;2023-06-19T06:45:28;35;33;
75946;PMS5003;64628;50.104;14.614;2023-06-19T06:47:48;37;33;
75946;PMS5003;64628;50.104;14.614;2023-06-19T06:50:13;38;38;
75946;PMS5003;64628;50.104;14.614;2023-06-19T06:55:04;33;29;
75946;PMS5003;64628;50.104;14.614;2023-06-19T06:57:29;35;35;
75946;PMS5003;64628;50.104;14.614;2023-06-19T07:09:37;37;34;
75946;PMS5003;64628;50.104;14.614;2023-06-19T07:12:08;31;30;
75946;PMS5003;64628;50.104;14.614;2023-06-19T07:17:02;35;33;
75946;PMS5003;64628;50.104;14.614;2023-06-19T07:19:20;36;35;
75946;PMS5003;64628;50.104;14.614;2023-06-19T07:26:39;34;34;
75946;PMS5003;64628;50.104;14.614;2023-06-19T07:29:00;31;29;
75946;PMS5003;64628;50.104;14.614;2023-06-19T07:31:33;30;29;
75946;PMS5003;64628;50.104;14.614;2023-06-19T07:33:56;36;33;
75946;PMS5003;64628;50.104;14.614;2023-06-19T07:36:23;34;29;
75946;PMS5003;64628;50.104;14.614;2023-06-19T07:38:42;36;34;
75946;PMS5003;64628;50.104;14.614;2023-06-19T07:41:07;32;32;
75946;PMS5003;64628;50.104;14.614;2023-06-19T07:43:38;31;30;
75946;PMS5003;64628;50.104;14.614;2023-06-19T07:48:23;35;33;
75946;PMS5003;64628;50.104;14.614;2023-06-19T07:50:55;31;30;
75946;PMS5003;64628;50.104;14.614;2023-06-19T07:55:38;29;28;
75946;PMS5003;64628;50.104;14.614;2023-06-19T07:58:15;29;27;
75946;PMS5003;64628;50.104;14.614;2023-06-19T08:00:28;35;33;
75946;PMS5003;64628;50.104;14.614;2023-06-19T08:02:54;31;29;
75946;PMS5003;64628;50.104;14.614;2023-06-19T08:07:44;29;29;
75946;PMS5003;64628;50.104;14.614;2023-06-19T08:10:12;29;29;
75946;PMS5003;64628;50.104;14.614;2023-06-19T08:12:38;34;33;
75946;PMS5003;64628;50.104;14.614;2023-06-19T08:22:19;32;28;
75946;PMS5003;64628;50.104;14.614;2023-06-19T08:24:53;36;31;
75946;PMS5003;64628;50.104;14.614;2023-06-19T08:29:40;27;27;
75946;PMS5003;64628;50.104;14.614;2023-06-19T08:44:07;44;43;
75946;PMS5003;64628;50.104;14.614;2023-06-19T08:58:51;32;28;
75946;PMS5003;64628;50.104;14.614;2023-06-19T11:31:31;22;22;
75946;PMS5003;64628;50.104;14.614;2023-06-19T11:33:59;23;22;
75946;PMS5003;64628;50.104;14.614;2023-06-19T11:48:25;30;26;
75946;PMS5003;64628;50.104;14.614;2023-06-19T12:03:01;22;22;
75946;PMS5003;64628;50.104;14.614;2023-06-19T12:20:00;21;21;
75946;PMS5003;64628;50.104;14.614;2023-06-19T12:27:15;17;16;
75946;PMS5003;64628;50.104;14.614;2023-06-19T12:44:21;20;17;
75946;PMS5003;64628;50.104;14.614;2023-06-19T13:27:41;23;21;
75946;PMS5003;64628;50.104;14.614;2023-06-19T13:35:12;15;15;
75946;PMS5003;64628;50.104;14.614;2023-06-19T13:59:18;17;17;
75946;PMS5003;64628;50.104;14.614;2023-06-19T15:09:30;24;22;
75946;PMS5003;64628;50.104;14.614;2023-06-19T15:11:56;22;21;
75946;PMS5003;64628;50.104;14.614;2023-06-19T15:14:21;28;27;
75946;PMS5003;64628;50.104;14.614;2023-06-19T15:16:46;25;25;
75946;PMS5003;64628;50.104;14.614;2023-06-19T15:19:12;28;27;
75946;PMS5003;64628;50.104;14.614;2023-06-19T15:21:38;30;29;
75946;PMS5003;64628;50.104;14.614;2023-06-19T15:24:03;27;23;
75946;PMS5003;64628;50.104;14.614;2023-06-19T15:26:29;26;26;
75946;PMS5003;64628;50.104;14.614;2023-06-19T15:36:26;25;24;
75946;PMS5003;64628;50.104;14.614;2023-06-19T16:00:26;22;21;
75946;PMS5003;64628;50.104;14.614;2023-06-19T16:02:51;21;21;
75946;PMS5003;64628;50.104;14.614;2023-06-19T16:05:21;23;23;
75946;PMS5003;64628;50.104;14.614;2023-06-19T16:07:42;22;21;
75946;PMS5003;64628;50.104;14.614;2023-06-19T16:19:50;22;19;
75946;PMS5003;64628;50.104;14.614;2023-06-19T16:24:41;24;21;
75946;PMS5003;64628;50.104;14.614;2023-06-19T16:29:36;21;21;
75946;PMS5003;64628;50.104;14.614;2023-06-19T16:31:56;22;21;
75946;PMS5003;64628;50.104;14.614;2023-06-19T16:34:27;24;22;
75946;PMS5003;64628;50.104;14.614;2023-06-19T16:36:46;21;21;
75946;PMS5003;64628;50.104;14.614;2023-06-19T16:44:04;21;21;
75946;PMS5003;64628;50.104;14.614;2023-06-19T16:46:30;26;25;
75946;PMS5003;64628;50.104;14.614;2023-06-19T16:48:54;26;23;
75946;PMS5003;64628;50.104;14.614;2023-06-19T16:51:19;25;25;
75946;PMS5003;64628;50.104;14.614;2023-06-19T16:53:45;27;27;
75946;PMS5003;64628;50.104;14.614;2023-06-19T16:56:10;20;18;
75946;PMS5003;64628;50.104;14.614;2023-06-19T16:58:35;28;28;
75946;PMS5003;64628;50.104;14.614;2023-06-19T17:01:00;25;23;
75946;PMS5003;64628;50.104;14.614;2023-06-19T17:03:25;21;16;
75946;PMS5003;64628;50.104;14.614;2023-06-19T17:05:51;29;27;
75946;PMS5003;64628;50.104;14.614;2023-06-19T17:08:21;26;25;
75946;PMS5003;64628;50.104;14.614;2023-06-19T17:10:42;28;27;
75946;PMS5003;64628;50.104;14.614;2023-06-19T17:13:07;31;31;
75946;PMS5003;64628;50.104;14.614;2023-06-19T17:15:32;33;30;
75946;PMS5003;64628;50.104;14.614;2023-06-19T17:17:58;24;24;
75946;PMS5003;64628;50.104;14.614;2023-06-19T17:20:23;29;29;
75946;PMS5003;64628;50.104;14.614;2023-06-19T17:22:48;32;32;
75946;PMS5003;64628;50.104;14.614;2023-06-19T17:25:14;29;28;
75946;PMS5003;64628;50.104;14.614;2023-06-19T17:27:40;27;26;
75946;PMS5003;64628;50.104;14.614;2023-06-19T17:30:05;25;25;
75946;PMS5003;64628;50.104;14.614;2023-06-19T17:32:29;30;30;
75946;PMS5003;64628;50.104;14.614;2023-06-19T17:34:55;36;34;
75946;PMS5003;64628;50.104;14.614;2023-06-19T17:37:21;21;19;
75946;PMS5003;64628;50.104;14.614;2023-06-19T17:39:46;35;34;
75946;PMS5003;64628;50.104;14.614;2023-06-19T17:42:12;21;21;
75946;PMS5003;64628;50.104;14.614;2023-06-19T17:44:37;26;25;
75946;PMS5003;64628;50.104;14.614;2023-06-19T17:47:03;54;54;
75946;PMS5003;64628;50.104;14.614;2023-06-19T17:49:28;34;32;
75946;PMS5003;64628;50.104;14.614;2023-06-19T17:51:53;47;47;
75946;PMS5003;64628;50.104;14.614;2023-06-19T17:54:19;48;46;
75946;PMS5003;64628;50.104;14.614;2023-06-19T17:56:44;45;45;
75946;PMS5003;64628;50.104;14.614;2023-06-19T17:59:11;59;57;
75946;PMS5003;64628;50.104;14.614;2023-06-19T18:01:36;46;46;
75946;PMS5003;64628;50.104;14.614;2023-06-19T18:04:01;47;46;
75946;PMS5003;64628;50.104;14.614;2023-06-19T18:06:27;53;49;
75946;PMS5003;64628;50.104;14.614;2023-06-19T18:08:52;54;54;
75946;PMS5003;64628;50.104;14.614;2023-06-19T18:11:17;71;66;
75946;PMS5003;64628;50.104;14.614;2023-06-19T18:13:42;93;91;
75946;PMS5003;64628;50.104;14.614;2023-06-19T18:16:08;33;32;
75946;PMS5003;64628;50.104;14.614;2023-06-19T18:18:33;23;20;
75946;PMS5003;64628;50.104;14.614;2023-06-19T18:20:58;21;21;
75946;PMS5003;64628;50.104;14.614;2023-06-19T18:23:24;34;27;
75946;PMS5003;64628;50.104;14.614;2023-06-19T18:25:49;26;26;
75946;PMS5003;64628;50.104;14.614;2023-06-19T18:28:14;27;24;
75946;PMS5003;64628;50.104;14.614;2023-06-19T18:30:39;25;22;
75946;PMS5003;64628;50.104;14.614;2023-06-19T18:33:05;31;30;
75946;PMS5003;64628;50.104;14.614;2023-06-19T18:35:31;30;26;
75946;PMS5003;64628;50.104;14.614;2023-06-19T18:37:56;24;23;
75946;PMS5003;64628;50.104;14.614;2023-06-19T18:40:21;26;23;
75946;PMS5003;64628;50.104;14.614;2023-06-19T18:42:47;22;22;
75946;PMS5003;64628;50.104;14.614;2023-06-19T18:45:13;25;24;
75946;PMS5003;64628;50.104;14.614;2023-06-19T18:47:38;27;25;
75946;PMS5003;64628;50.104;14.614;2023-06-19T18:50:04;26;22;
75946;PMS5003;64628;50.104;14.614;2023-06-19T18:52:29;30;28;
75946;PMS5003;64628;50.104;14.614;2023-06-19T18:54:55;33;28;
75946;PMS5003;64628;50.104;14.614;2023-06-19T18:57:21;34;32;
75946;PMS5003;64628;50.104;14.614;2023-06-19T18:59:46;31;31;
75946;PMS5003;64628;50.104;14.614;2023-06-19T19:02:12;33;31;
75946;PMS5003;64628;50.104;14.614;2023-06-19T19:04:37;37;32;
75946;PMS5003;64628;50.104;14.614;2023-06-19T19:07:05;29;29;
75946;PMS5003;64628;50.104;14.614;2023-06-19T19:09:28;32;31;
75946;PMS5003;64628;50.104;14.614;2023-06-19T19:11:54;29;27;
75946;PMS5003;64628;50.104;14.614;2023-06-19T19:14:19;51;48;
75946;PMS5003;64628;50.104;14.614;2023-06-19T19:16:44;44;42;
75946;PMS5003;64628;50.104;14.614;2023-06-19T19:19:09;38;35;
75946;PMS5003;64628;50.104;14.614;2023-06-19T19:21:35;39;38;
75946;PMS5003;64628;50.104;14.614;2023-06-19T19:24:00;40;39;
75946;PMS5003;64628;50.104;14.614;2023-06-19T19:26:25;34;32;
75946;PMS5003;64628;50.104;14.614;2023-06-19T19:28:51;39;34;
75946;PMS5003;64628;50.104;14.614;2023-06-19T19:31:16;37;37;
75946;PMS5003;64628;50.104;14.614;2023-06-19T19:33:42;31;30;
75946;PMS5003;64628;50.104;14.614;2023-06-19T19:36:07;30;30;
75946;PMS5003;64628;50.104;14.614;2023-06-19T19:38:32;29;27;
75946;PMS5003;64628;50.104;14.614;2023-06-19T19:40:57;32;31;
75946;PMS5003;64628;50.104;14.614;2023-06-19T19:43:23;34;30;
75946;PMS5003;64628;50.104;14.614;2023-06-19T19:45:48;28;28;
75946;PMS5003;64628;50.104;14.614;2023-06-19T19:48:14;29;27;
75946;PMS5003;64628;50.104;14.614;2023-06-19T19:50:40;37;33;
75946;PMS5003;64628;50.104;14.614;2023-06-19T19:53:06;38;35;
75946;PMS5003;64628;50.104;14.614;2023-06-19T19:55:31;37;34;
75946;PMS5003;64628;50.104;14.614;2023-06-19T19:57:56;26;26;
75946;PMS5003;64628;50.104;14.614;2023-06-19T20:00:22;29;28;
75946;PMS5003;64628;50.104;14.614;2023-06-19T20:02:48;34;34;
75946;PMS5003;64628;50.104;14.614;2023-06-19T20:05:13;31;29;
75946;PMS5003;64628;50.104;14.614;2023-06-19T20:07:39;36;32;
75946;PMS5003;64628;50.104;14.614;2023-06-19T20:10:05;37;34;
75946;PMS5003;64628;50.104;14.614;2023-06-19T20:12:29;40;40;
75946;PMS5003;64628;50.104;14.614;2023-06-19T20:14:55;38;37;
75946;PMS5003;64628;50.104;14.614;2023-06-19T20:17:21;41;41;
75946;PMS5003;64628;50.104;14.614;2023-06-19T20:19:51;60;60;
75946;PMS5003;64628;50.104;14.614;2023-06-19T20:22:12;46;46;
75946;PMS5003;64628;50.104;14.614;2023-06-19T20:24:43;52;49;
75946;PMS5003;64628;50.104;14.614;2023-06-19T20:27:03;51;51;
75946;PMS5003;64628;50.104;14.614;2023-06-19T20:29:28;39;39;
75946;PMS5003;64628;50.104;14.614;2023-06-19T20:31:54;54;52;
75946;PMS5003;64628;50.104;14.614;2023-06-19T20:34:19;48;47;
75946;PMS5003;64628;50.104;14.614;2023-06-19T20:36:44;56;56;
75946;PMS5003;64628;50.104;14.614;2023-06-19T20:39:11;58;58;
75946;PMS5003;64628;50.104;14.614;2023-06-19T20:41:40;44;43;
75946;PMS5003;64628;50.104;14.614;2023-06-19T20:44:01;41;40;
75946;PMS5003;64628;50.104;14.614;2023-06-19T20:46:26;41;38;
75946;PMS5003;64628;50.104;14.614;2023-06-19T20:48:51;51;50;
75946;PMS5003;64628;50.104;14.614;2023-06-19T20:51:18;51;47;
75946;PMS5003;64628;50.104;14.614;2023-06-19T20:53:41;53;51;
75946;PMS5003;64628;50.104;14.614;2023-06-19T20:56:08;57;55;
75946;PMS5003;64628;50.104;14.614;2023-06-19T20:58:33;53;52;
75946;PMS5003;64628;50.104;14.614;2023-06-19T21:00:59;33;31;
75946;PMS5003;64628;50.104;14.614;2023-06-19T21:03:23;32;29;
75946;PMS5003;64628;50.104;14.614;2023-06-19T21:05:49;31;28;
75946;PMS5003;64628;50.104;14.614;2023-06-19T21:08:14;34;32;
75946;PMS5003;64628;50.104;14.614;2023-06-19T21:10:39;29;29;
75946;PMS5003;64628;50.104;14.614;2023-06-19T21:13:06;28;27;
75946;PMS5003;64628;50.104;14.614;2023-06-19T21:15:30;30;30;
75946;PMS5003;64628;50.104;14.614;2023-06-19T21:17:56;35;31;
75946;PMS5003;64628;50.104;14.614;2023-06-19T21:20:22;34;32;
75946;PMS5003;64628;50.104;14.614;2023-06-19T21:22:48;35;32;
75946;PMS5003;64628;50.104;14.614;2023-06-19T21:25:13;34;32;
75946;PMS5003;64628;50.104;14.614;2023-06-19T21:27:38;36;36;
75946;PMS5003;64628;50.104;14.614;2023-06-19T21:30:04;36;33;
75946;PMS5003;64628;50.104;14.614;2023-06-19T21:32:29;32;32;
75946;PMS5003;64628;50.104;14.614;2023-06-19T21:34:54;37;32;
75946;PMS5003;64628;50.104;14.614;2023-06-19T21:37:19;31;30;
75946;PMS5003;64628;50.104;14.614;2023-06-19T21:39:46;40;39;
75946;PMS5003;64628;50.104;14.614;2023-06-19T21:42:11;29;26;
75946;PMS5003;64628;50.104;14.614;2023-06-19T21:44:37;33;30;
75946;PMS5003;64628;50.104;14.614;2023-06-19T21:47:02;38;36;
75946;PMS5003;64628;50.104;14.614;2023-06-19T21:49:28;39;37;
75946;PMS5003;64628;50.104;14.614;2023-06-19T21:51:53;34;31;
75946;PMS5003;64628;50.104;14.614;2023-06-19T21:54:18;29;27;
75946;PMS5003;64628;50.104;14.614;2023-06-19T21:56:44;35;32;
75946;PMS5003;64628;50.104;14.614;2023-06-19T21:59:10;41;36;
75946;PMS5003;64628;50.104;14.614;2023-06-19T22:01:35;37;34;
75946;PMS5003;64628;50.104;14.614;2023-06-19T22:04:01;45;39;
75946;PMS5003;64628;50.104;14.614;2023-06-19T22:06:26;35;30;
75946;PMS5003;64628;50.104;14.614;2023-06-19T22:08:51;35;33;
75946;PMS5003;64628;50.104;14.614;2023-06-19T22:11:17;33;31;
75946;PMS5003;64628;50.104;14.614;2023-06-19T22:13:43;36;33;
75946;PMS5003;64628;50.104;14.614;2023-06-19T22:16:08;33;29;
75946;PMS5003;64628;50.104;14.614;2023-06-19T22:18:34;42;39;
75946;PMS5003;64628;50.104;14.614;2023-06-19T22:20:59;41;39;
75946;PMS5003;64628;50.104;14.614;2023-06-19T22:23:25;35;32;
75946;PMS5003;64628;50.104;14.614;2023-06-19T22:25:51;36;35;
75946;PMS5003;64628;50.104;14.614;2023-06-19T22:28:17;36;33;
75946;PMS5003;64628;50.104;14.614;2023-06-19T22:30:42;41;40;
75946;PMS5003;64628;50.104;14.614;2023-06-19T22:33:07;31;30;
75946;PMS5003;64628;50.104;14.614;2023-06-19T22:35:33;31;31;
75946;PMS5003;64628;50.104;14.614;2023-06-19T22:37:59;37;34;
75946;PMS5003;64628;50.104;14.614;2023-06-19T22:40:24;38;37;
75946;PMS5003;64628;50.104;14.614;2023-06-19T22:42:49;37;35;
75946;PMS5003;64628;50.104;14.614;2023-06-19T22:45:15;38;37;
75946;PMS5003;64628;50.104;14.614;2023-06-19T22:47:40;39;39;
75946;PMS5003;64628;50.104;14.614;2023-06-19T22:50:05;35;33;
75946;PMS5003;64628;50.104;14.614;2023-06-19T22:52:30;38;36;
75946;PMS5003;64628;50.104;14.614;2023-06-19T22:54:56;36;34;
75946;PMS5003;64628;50.104;14.614;2023-06-19T22:57:21;37;32;
75946;PMS5003;64628;50.104;14.614;2023-06-19T22:59:47;39;36;
75946;PMS5003;64628;50.104;14.614;2023-06-19T23:02:11;32;31;
75946;PMS5003;64628;50.104;14.614;2023-06-19T23:04:37;37;36;
75946;PMS5003;64628;50.104;14.614;2023-06-19T23:07:03;40;38;
75946;PMS5003;64628;50.104;14.614;2023-06-19T23:09:28;30;30;
75946;PMS5003;64628;50.104;14.614;2023-06-19T23:11:54;33;32;
75946;PMS5003;64628;50.104;14.614;2023-06-19T23:14:20;35;29;
75946;PMS5003;64628;50.104;14.614;2023-06-19T23:16:45;39;36;
75946;PMS5003;64628;50.104;14.614;2023-06-19T23:19:10;37;35;
75946;PMS5003;64628;50.104;14.614;2023-06-19T23:21:35;35;34;
75946;PMS5003;64628;50.104;14.614;2023-06-19T23:24:01;40;39;
75946;PMS5003;64628;50.104;14.614;2023-06-19T23:26:27;38;36;
75946;PMS5003;64628;50.104;14.614;2023-06-19T23:28:53;41;39;
75946;PMS5003;64628;50.104;14.614;2023-06-19T23:31:18;38;35;
75946;PMS5003;64628;50.104;14.614;2023-06-19T23:33:43;37;34;
75946;PMS5003;64628;50.104;14.614;2023-06-19T23:36:09;39;36;
75946;PMS5003;64628;50.104;14.614;2023-06-19T23:38:34;35;35;
75946;PMS5003;64628;50.104;14.614;2023-06-19T23:41:00;35;33;
75946;PMS5003;64628;50.104;14.614;2023-06-19T23:43:25;34;33;
75946;PMS5003;64628;50.104;14.614;2023-06-19T23:45:51;38;37;
75946;PMS5003;64628;50.104;14.614;2023-06-19T23:48:16;39;38;
75946;PMS5003;64628;50.104;14.614;2023-06-19T23:50:41;33;32;
75946;PMS5003;64628;50.104;14.614;2023-06-19T23:53:07;49;44;
75946;PMS5003;64628;50.104;14.614;2023-06-19T23:55:32;37;35;
75946;PMS5003;64628;50.104;14.614;2023-06-19T23:57:58;41;39;
